Nearby METAR Reports

 

KMGY - Dayton, Ohio, USA
Distance from station: N 3mi, 5km
Updated: Fri, 23-Feb-2018 3:06am EST
Mist, Overcast
Mist, Overcast
 Wind from calm
Wind: Calm
Temperature: 45°F , 7°C
Dew Point: 45°F , 7°C
Humidity: 100%
Barometer: 30.30 inHg , 1026.1 hPa
Summary: Mist
Clouds: Overcast
Visibility: 3/4 mile , 1.2 km
Cloud details: Overcast 200 ft
2018/02/23 08:06 KMGY 230806Z AUTO 00000KT 3/4SM BR OVC002 07/07 A3030 RMK AO2 T00720072
KMWO - Middletown/Hook, Ohio, USA
Distance from station: W 9mi, 14km
Updated: Fri, 23-Feb-2018 3:15am EST
Overcast
Overcast
 Wind from ESE
Wind: ESE 3 mph , 6 km/h
Temperature: 45°F , 7°C
Dew Point: 45°F , 7°C
Humidity: 100%
Barometer: 30.32 inHg , 1026.8 hPa
Clouds: Overcast
Visibility: 1 1/2 miles , 2.4 km
Cloud details: Overcast 300 ft
2018/02/23 08:15 KMWO 230815Z AUTO 12003KT 1 1/2SM OVC003 07/07 A3032 RMK AO2 PWINO T00740073
 
KHAO - Hamilton, Ohio, USA
Distance from station: SW 20mi, 32km
Updated: Fri, 23-Feb-2018 3:24am EST
Light rain, Mist, Overcast
Light rain, Mist, Overcast
 Wind from calm
Wind: Calm
Temperature: 46°F , 8°C
Dew Point: 46°F , 8°C
Humidity: 100%
Barometer: 30.31 inHg , 1026.4 hPa
Summary: Light rain, Mist
Clouds: Overcast
Visibility: 1 mile , 2 km
Cloud details: Overcast 300 ft
2018/02/23 08:24 KHAO 230824Z AUTO 00000KT 1SM -RA BR VV003 08/08 A3031 RMK AO2 RAB17 P0000 T00780078
KFFO - Wright Paterson, Ohio, USA
Distance from station: NNE 21mi, 34km
Updated: Fri, 23-Feb-2018 2:56am EST
Mist, Overcast
Mist, Overcast
 Wind from ESE
Wind: ESE 6 mph , 9 km/h
Temperature: 45°F , 7°C
Wind Chill: 42°F , 6°C
Dew Point: 43°F , 6°C
Humidity: 93%
Barometer: 30.31 inHg , 1026.4 hPa
Summary: Mist
Clouds: Overcast
Visibility: 1 3/4 miles , 2.8 km
Cloud details: Overcast 200 ft
2018/02/23 07:56 KFFO 230756Z 12005KT 1 3/4SM BR OVC002 07/06 A3031 RMK AO2A SLP271 T00670060
 
KDAY - Dayton, Ohio, USA
Distance from station: N 24mi, 39km
Updated: Fri, 23-Feb-2018 2:56am EST
Mist, Overcast
Mist, Overcast
 Wind from SSE
Wind: SSE 12 mph , 19 km/h
Temperature: 43°F , 6°C
Wind Chill: 37°F , 3°C
Dew Point: 43°F , 6°C
Humidity: 100%
Barometer: 30.31 inHg , 1026.4 hPa
Summary: Mist
Clouds: Overcast
Visibility: 1/4 mile , 0.4 km
Cloud details: Overcast 200 ft
2018/02/23 07:56 KDAY 230756Z 15010KT 1/4SM R06L/P6000FT BR OVC002 06/06 A3031 RMK AO2 SFC VIS 1 1/4 RAE04 SLP268 P0000 T00610061
KILN - Wilmington, Ohio, USA
Distance from station: ESE 25mi, 39km
Updated: Fri, 23-Feb-2018 3:25am EST
Mist, Overcast
Mist, Overcast
 Wind from SE
Wind: SE 3 mph , 6 km/h
Temperature: 45°F , 7°C
Dew Point: 45°F , 7°C
Humidity: 100%
Barometer: 30.30 inHg , 1026.1 hPa
Summary: Mist
Clouds: Overcast
Visibility: 3 miles , 5 km
Cloud details: Overcast 200 ft
2018/02/23 08:25 KILN 230825Z AUTO 13003KT 3SM BR OVC002 07/07 A3030 RMK AO2 T00720072
 
KSGH - Springfield Muni, Ohio, USA
Distance from station: NE 29mi, 46km
Updated: Fri, 23-Feb-2018 3:08am EST
Mist, Overcast
Mist, Overcast
 Wind from SE
Wind: SE 8 mph , 13 km/h
Temperature: 43°F , 6°C
Wind Chill: 38°F , 3°C
Dew Point: 43°F , 6°C
Humidity: 100%
Barometer: 30.31 inHg , 1026.4 hPa
Summary: Mist
Clouds: Overcast
Visibility: 1 3/4 miles , 2.8 km
Cloud details: Overcast 300 ft
2018/02/23 08:08 KSGH 230808Z AUTO 13007KT 1 3/4SM BR OVC003 06/06 A3031 RMK AO2
KI69 - Batavia, Ohio, USA
Distance from station: S 32mi, 52km
Updated: Fri, 23-Feb-2018 3:15am EST
Mist, Overcast
Mist, Overcast
 Wind from SE
Wind: SE 3 mph , 6 km/h
Temperature: 46°F , 8°C
Dew Point: 45°F , 7°C
Humidity: 93%
Barometer: 30.32 inHg , 1026.8 hPa
Summary: Mist
Clouds: Overcast
Visibility: 1 3/4 miles , 2.8 km
Cloud details: Overcast 300 ft
2018/02/23 08:15 KI69 230815Z AUTO 14003KT 1 3/4SM BR OVC003 08/07 A3032 RMK AO2 T00780073
 
KLUK - Cincinnat/Lunken, Ohio, USA
Distance from station: SSW 33mi, 53km
Updated: Fri, 23-Feb-2018 2:53am EST
Mist, Overcast
Mist, Overcast
 Wind from calm
Wind: Calm
Temperature: 46°F , 8°C
Dew Point: 46°F , 8°C
Humidity: 100%
Barometer: 30.33 inHg , 1027.1 hPa
Summary: Mist
Clouds: Overcast
Visibility: 5 miles , 8 km
Cloud details: Overcast 500 ft
2018/02/23 07:53 KLUK 230753Z AUTO 00000KT 5SM BR OVC005 08/08 A3033 RMK AO2 SLP272 T00780078
KCVG - Covington, Kentucky, USA
Distance from station: SSW 42mi, 67km
Updated: Fri, 23-Feb-2018 3:00am EST
Light rain, Mist, Overcast
Light rain, Mist, Overcast
 Wind from ESE
Wind: ESE 5 mph , 7 km/h
Temperature: 46°F , 8°C
Wind Chill: 44°F , 7°C
Dew Point: 46°F , 8°C
Humidity: 100%
Barometer: 30.30 inHg , 1026.1 hPa
Summary: Light rain, Mist
Clouds: Overcast
Visibility: 1/2 mile , 0.8 km
Cloud details: Overcast 200 ft
2018/02/23 08:00 KCVG 230800Z 11004KT 1/2SM R18C/P6000FT -RA BR OVC002 08/08 A3030 RMK AO2 SFC VIS 2 P0000 T00780078
 
KVES - Versailles, Ohio, USA
Distance from station: NNW 47mi, 76km
Updated: Fri, 23-Feb-2018 3:10am EST
Light drizzle, Overcast
Light drizzle, Overcast
 Wind from S
Wind: S 13 mph , 20 km/h, Gust: 16 mph , 26 km/h
Temperature: 43°F , 6°C
Wind Chill: 36°F , 2°C
Dew Point: 43°F , 6°C
Humidity: 100%
Barometer: 30.29 inHg , 1025.7 hPa
Summary: Light Drizzle
Clouds: Overcast
Visibility: 1 3/4 miles , 2.8 km
Cloud details: Overcast 300 ft
2018/02/23 08:10 KVES 230810Z AUTO 17011G14KT 1 3/4SM -DZ OVC003 06/06 A3029 RMK AO2